Time;durP1;ratioP1;P1;durP2;ratioP2;P2;SDS_P1;SDS_P2;PMS_P1;PMS_P2;Temp;Humidity;BMP_temperature;BMP_pressure;BME280_temperature;BME280_humidity;BME280_pressure;Samples;Min_cycle;Max_cycle;Signal;HPM_P1;HPM_P2
2021/12/13 00:00:27;;;;;;;39.50;15.55;;;9.70;99.90;;;;;;6174798;23;20255;-87
2021/12/13 00:03:41;;;;;;;45.97;15.45;;;9.70;99.90;;;;;;6174539;23;20012;-86
2021/12/13 00:06:22;;;;;;;42.63;14.50;;;9.70;99.90;;;;;;6172410;23;20005;-89
2021/12/13 00:08:58;;;;;;;36.38;14.23;;;9.60;99.90;;;;;;6173547;23;20192;-87
2021/12/13 00:11:54;;;;;;;37.63;14.55;;;9.60;99.90;;;;;;6198075;23;20028;-88
2021/12/13 00:14:33;;;;;;;34.15;14.05;;;9.60;99.90;;;;;;6166113;23;20017;-87
2021/12/13 00:17:50;;;;;;;46.58;14.50;;;9.70;99.90;;;;;;6174769;23;20056;-87
2021/12/13 00:20:36;;;;;;;36.00;13.82;;;9.70;99.90;;;;;;6125437;23;20064;-87
2021/12/13 00:23:35;;;;;;;35.63;14.00;;;9.50;99.90;;;;;;6175401;23;20243;-88
2021/12/13 00:26:07;;;;;;;43.17;15.57;;;9.70;99.90;;;;;;6175791;23;19997;-86
2021/12/13 00:28:40;;;;;;;39.88;15.25;;;9.60;99.90;;;;;;6174778;23;20012;-87
2021/12/13 00:31:50;;;;;;;38.50;14.43;;;9.70;99.90;;;;;;6155585;23;20154;-87
2021/12/13 00:35:02;;;;;;;43.60;14.77;;;9.50;99.90;;;;;;6199561;23;20004;-87
2021/12/13 00:37:48;;;;;;;41.45;14.82;;;9.60;99.90;;;;;;6176828;23;20028;-87
2021/12/13 00:40:23;;;;;;;33.10;14.20;;;9.70;99.90;;;;;;6199942;23;20001;-87
2021/12/13 00:43:14;;;;;;;44.15;15.13;;;9.70;99.90;;;;;;6150338;23;20175;-88
2021/12/13 00:46:00;;;;;;;35.60;14.23;;;9.70;99.90;;;;;;6175392;23;20004;-87
2021/12/13 00:48:39;;;;;;;37.92;14.85;;;9.70;99.90;;;;;;6174973;23;20102;-88
2021/12/13 00:51:29;;;;;;;37.58;15.05;;;9.70;99.90;;;;;;6199299;23;20194;-87
2021/12/13 00:54:04;;;;;;;37.40;14.98;;;9.60;99.90;;;;;;6199463;23;20004;-87
2021/12/13 00:57:08;;;;;;;42.65;15.68;;;9.70;99.90;;;;;;6174469;23;20031;-88
2021/12/13 01:00:16;;;;;;;35.80;15.52;;;9.70;99.90;;;;;;6141758;23;20005;-86
2021/12/13 01:02:58;;;;;;;42.58;15.55;;;9.70;99.90;;;;;;6174291;23;20056;-86
2021/12/13 01:09:21;;;;;;;38.53;15.52;;;9.70;99.90;;;;;;6199558;23;20060;-87
2021/12/13 01:12:20;;;;;;;42.50;15.80;;;9.70;99.90;;;;;;6199268;23;20005;-87
2021/12/13 01:15:10;;;;;;;41.05;15.80;;;9.60;99.90;;;;;;6174901;23;20000;-87
2021/12/13 01:18:22;;;;;;;38.30;16.17;;;9.60;99.90;;;;;;6198928;23;20004;-89
2021/12/13 01:21:04;;;;;;;41.58;16.40;;;9.70;99.90;;;;;;6195588;23;20256;-87
2021/12/13 01:24:03;;;;;;;48.85;16.85;;;9.70;99.90;;;;;;6199167;23;20194;-86
2021/12/13 01:26:38;;;;;;;45.38;16.63;;;9.70;99.90;;;;;;6198024;23;20008;-86
2021/12/13 01:29:59;;;;;;;47.83;17.23;;;9.70;99.90;;;;;;6199180;23;20087;-88
2021/12/13 01:32:53;;;;;;;47.85;17.67;;;9.70;99.90;;;;;;6169051;23;20004;-87
2021/12/13 01:36:00;;;;;;;48.83;17.73;;;9.70;99.90;;;;;;6218032;23;20136;-88
2021/12/13 01:39:13;;;;;;;55.10;17.20;;;9.70;99.90;;;;;;6168822;23;20049;-87
2021/12/13 01:42:36;;;;;;;47.75;16.65;;;9.70;99.90;;;;;;6173478;23;20011;-87
2021/12/13 01:46:02;;;;;;;51.60;17.13;;;9.70;99.90;;;;;;6133698;23;20136;-87
2021/12/13 01:48:46;;;;;;;52.67;16.70;;;9.70;99.90;;;;;;6060313;23;20184;-88
2021/12/13 01:51:50;;;;;;;40.85;14.90;;;9.70;99.90;;;;;;6084587;23;20307;-87
2021/12/13 01:58:26;;;;;;;42.75;14.68;;;9.70;99.90;;;;;;6132577;23;20128;-87
2021/12/13 02:01:24;;;;;;;41.55;14.25;;;8.10;99.90;;;;;;6119451;23;19998;-87
2021/12/13 02:04:30;;;;;;;43.67;14.60;;;9.80;99.90;;;;;;6085028;23;20006;-88
2021/12/13 02:11:15;;;;;;;39.38;13.95;;;9.70;99.90;;;;;;6065402;23;20014;-87
2021/12/13 02:14:28;;;;;;;37.97;13.85;;;9.70;99.90;;;;;;6083837;23;20210;-88
2021/12/13 02:21:08;;;;;;;37.15;14.52;;;9.70;99.90;;;;;;6089155;23;20015;-87
2021/12/13 02:25:07;;;;;;;39.67;15.43;;;9.70;99.90;;;;;;6062383;23;20014;-87
2021/12/13 02:28:00;;;;;;;37.53;14.10;;;9.70;99.90;;;;;;6092910;23;20045;-88
2021/12/13 02:30:54;;;;;;;48.05;15.07;;;9.70;99.90;;;;;;6080931;23;20252;-87
2021/12/13 02:34:38;;;;;;;43.50;15.80;;;9.70;99.90;;;;;;6025159;23;20132;-88
2021/12/13 02:37:25;;;;;;;37.25;15.68;;;9.70;99.90;;;;;;5935370;23;20124;-89
2021/12/13 02:40:07;;;;;;;38.80;15.32;;;9.60;99.90;;;;;;6022407;23;20003;-86
2021/12/13 02:46:00;;;;;;;43.25;16.88;;;9.70;99.90;;;;;;6082197;23;20006;-88
2021/12/13 02:48:49;;;;;;;44.92;16.85;;;9.70;99.90;;;;;;6126877;23;20232;-88
2021/12/13 02:51:31;;;;;;;36.95;16.55;;;9.60;99.90;;;;;;6143142;23;20012;-87
2021/12/13 02:54:19;;;;;;;38.22;16.38;;;9.60;99.90;;;;;;6145316;23;20036;-87
2021/12/13 02:56:54;;;;;;;40.72;18.27;;;9.70;99.90;;;;;;6142208;23;20001;-87
2021/12/13 02:59:46;;;;;;;43.43;18.37;;;9.60;99.90;;;;;;6144150;23;20044;-88
2021/12/13 03:02:30;;;;;;;42.95;18.42;;;9.70;99.90;;;;;;6144816;23;20028;-88
2021/12/13 03:05:23;;;;;;;41.05;18.52;;;9.70;99.90;;;;;;6167273;23;20005;-87
2021/12/13 03:07:55;;;;;;;41.10;18.87;;;9.60;99.90;;;;;;6129466;23;20001;-87
2021/12/13 03:10:50;;;;;;;;;;;;;;;;;;;;;
2021/12/13 03:13:19;;;;;;;46.92;19.65;;;9.70;99.90;;;;;;6168792;23;20057;-87
2021/12/13 03:16:09;;;;;;;48.35;19.88;;;9.60;99.90;;;;;;6120861;23;20008;-88
2021/12/13 03:19:13;;;;;;;44.47;19.70;;;9.60;99.90;;;;;;6143619;23;20191;-87
2021/12/13 03:22:22;;;;;;;48.30;19.75;;;9.60;99.90;;;;;;6154251;23;20190;-86
2021/12/13 03:25:57;;;;;;;43.22;18.55;;;9.60;99.90;;;;;;6174399;23;20079;-86
2021/12/13 03:29:23;;;;;;;41.55;19.00;;;9.60;99.90;;;;;;6055858;23;20205;-87
2021/12/13 03:32:41;;;;;;;49.08;19.35;;;9.60;99.90;;;;;;6056795;23;19999;-87
2021/12/13 03:35:51;;;;;;;49.00;19.88;;;9.60;99.90;;;;;;6113684;23;20060;-86
2021/12/13 03:38:57;;;;;;;54.42;20.15;;;9.60;99.90;;;;;;6198801;23;20056;-88
2021/12/13 03:41:52;;;;;;;41.97;19.25;;;9.60;99.90;;;;;;6199474;23;20196;-87
2021/12/13 03:44:58;;;;;;;;;;;;;;;;;;;;;
2021/12/13 03:47:37;;;;;;;47.20;18.40;;;9.60;99.90;;;;;;6215631;23;20005;-86
2021/12/13 03:50:43;;;;;;;38.00;17.00;;;9.50;99.90;;;;;;6173305;23;20241;-87
2021/12/13 03:53:26;;;;;;;38.50;15.85;;;9.50;99.90;;;;;;6198605;23;20001;-87
2021/12/13 03:56:05;;;;;;;40.23;15.50;;;9.50;99.90;;;;;;6175855;23;20028;-86
2021/12/13 03:58:37;;;;;;;38.42;16.08;;;9.50;99.90;;;;;;6200465;23;20000;-87
2021/12/13 04:01:17;;;;;;;35.83;14.07;;;9.50;99.90;;;;;;6175829;23;20043;-87
2021/12/13 04:03:53;;;;;;;31.40;13.20;;;9.30;99.90;;;;;;6200121;23;20155;-86
2021/12/13 04:06:25;;;;;;;31.20;14.02;;;9.40;99.90;;;;;;6175677;23;20151;-87
2021/12/13 04:08:55;;;;;;;31.02;12.30;;;9.40;99.90;;;;;;6175597;23;20235;-88
2021/12/13 04:11:24;;;;;;;32.63;13.20;;;9.40;99.90;;;;;;6199694;23;20012;-87
2021/12/13 04:14:25;;;;;;;32.83;12.45;;;9.40;99.90;;;;;;6173814;23;20016;-87
2021/12/13 04:17:20;;;;;;;27.85;12.02;;;9.40;99.90;;;;;;6200099;23;20154;-87
2021/12/13 04:19:58;;;;;;;28.63;11.38;;;9.40;99.90;;;;;;6175678;23;20001;-87
2021/12/13 04:22:34;;;;;;;31.02;11.85;;;9.40;99.90;;;;;;6174433;23;20008;-86
2021/12/13 04:25:13;;;;;;;31.92;11.23;;;9.30;99.90;;;;;;6199403;23;20289;-86
2021/12/13 04:27:48;;;;;;;28.98;10.90;;;9.40;99.90;;;;;;6174767;23;20054;-86
2021/12/13 04:30:42;;;;;;;24.33;10.57;;;9.40;99.90;;;;;;6199735;23;20020;-86
2021/12/13 04:33:27;;;;;;;23.52;9.32;;;9.40;99.90;;;;;;6174477;23;20005;-86
2021/12/13 04:36:10;;;;;;;20.15;8.60;;;9.50;99.90;;;;;;6197839;23;20007;-87
2021/12/13 04:39:11;;;;;;;21.88;9.02;;;9.30;99.90;;;;;;6199812;23;20032;-86
2021/12/13 04:41:51;;;;;;;19.67;8.68;;;;;;;;;;6136568;23;20150;-86
2021/12/13 04:44:35;;;;;;;22.40;9.40;;;9.40;99.90;;;;;;6200003;23;20000;-87
2021/12/13 04:47:19;;;;;;;18.77;7.88;;;9.40;99.90;;;;;;6174633;23;20001;-87
2021/12/13 04:50:32;;;;;;;19.63;7.90;;;8.20;99.90;;;;;;6175166;23;20215;-87
2021/12/13 04:53:08;;;;;;;17.80;7.10;;;9.40;99.90;;;;;;6143021;23;20005;-87
2021/12/13 04:55:42;;;;;;;14.98;6.63;;;9.40;99.90;;;;;;6200018;23;20001;-87
2021/12/13 04:58:15;;;;;;;17.23;6.38;;;9.40;99.90;;;;;;6199463;23;19997;-87
2021/12/13 05:00:46;;;;;;;20.33;7.00;;;9.20;99.90;;;;;;6199775;23;20032;-87
2021/12/13 05:03:25;;;;;;;14.68;5.07;;;9.30;99.90;;;;;;6174066;23;20040;-87
2021/12/13 05:06:00;;;;;;;13.48;5.68;;;;;;;;;;6174860;23;20155;-86
2021/12/13 05:08:27;;;;;;;15.65;5.75;;;9.30;99.90;;;;;;6199408;23;20000;-86
2021/12/13 05:11:09;;;;;;;13.43;5.22;;;8.40;99.90;;;;;;6151421;23;20005;-86
2021/12/13 05:14:06;;;;;;;15.70;6.20;;;9.30;99.90;;;;;;6199683;23;19996;-86
2021/12/13 05:16:46;;;;;;;14.80;5.63;;;9.20;99.90;;;;;;6149302;23;20001;-87
2021/12/13 05:19:24;;;;;;;16.30;5.85;;;9.30;99.90;;;;;;6175418;23;20001;-87
2021/12/13 05:21:59;;;;;;;16.60;6.22;;;9.30;99.90;;;;;;6175754;23;20024;-86
2021/12/13 05:24:43;;;;;;;14.25;5.38;;;9.20;99.90;;;;;;6199880;23;20009;-87
2021/12/13 05:27:29;;;;;;;14.20;5.60;;;9.20;99.90;;;;;;6173058;23;20008;-85
2021/12/13 05:30:05;;;;;;;11.38;4.85;;;9.20;99.90;;;;;;6175077;23;20063;-86
2021/12/13 05:32:35;;;;;;;14.00;5.10;;;9.20;99.90;;;;;;6198145;23;20004;-87
2021/12/13 05:35:34;;;;;;;16.70;4.90;;;9.20;99.90;;;;;;6199257;23;19997;-86
2021/12/13 05:38:22;;;;;;;12.18;4.55;;;9.20;99.90;;;;;;6151634;23;20226;-86
2021/12/13 05:41:07;;;;;;;15.55;4.93;;;9.20;99.90;;;;;;6174910;23;19997;-88
2021/12/13 05:43:36;;;;;;;18.02;5.25;;;9.10;99.90;;;;;;6198716;23;20055;-86
2021/12/13 05:46:09;;;;;;;13.13;5.35;;;9.20;99.90;;;;;;6173212;23;20017;-86
2021/12/13 05:48:34;;;;;;;14.35;5.80;;;9.20;99.90;;;;;;6174709;23;20055;-86
2021/12/13 05:51:19;;;;;;;12.48;5.50;;;9.20;99.90;;;;;;6174322;23;20279;-86
2021/12/13 05:53:52;;;;;;;14.32;6.03;;;9.10;99.90;;;;;;6174523;23;20012;-88
2021/12/13 05:56:19;;;;;;;16.55;6.18;;;9.20;99.90;;;;;;6198870;23;20040;-86
2021/12/13 05:59:42;;;;;;;13.93;5.88;;;9.20;99.90;;;;;;6175140;23;20012;-86
2021/12/13 06:02:17;;;;;;;14.23;6.32;;;9.20;99.90;;;;;;6075594;23;20003;-87
2021/12/13 06:05:06;;;;;;;14.75;6.18;;;9.20;99.90;;;;;;6156727;23;20150;-86
2021/12/13 06:07:39;;;;;;;15.60;6.55;;;9.20;99.90;;;;;;6194983;23;20001;-85
2021/12/13 06:10:15;;;;;;;15.88;6.68;;;9.20;99.90;;;;;;6173938;23;20011;-87
2021/12/13 06:12:54;;;;;;;16.70;6.65;;;9.20;99.90;;;;;;6174071;23;20060;-85
2021/12/13 06:15:39;;;;;;;17.98;6.70;;;9.20;99.90;;;;;;6198084;23;20020;-87
2021/12/13 06:18:05;;;;;;;15.18;6.78;;;;;;;;;;6174013;23;20000;-86
2021/12/13 06:20:36;;;;;;;17.70;6.80;;;;;;;;;;6225089;23;20035;-87
2021/12/13 06:23:15;;;;;;;17.67;6.95;;;9.20;99.90;;;;;;6198654;23;20290;-86
2021/12/13 06:25:44;;;;;;;18.77;6.38;;;9.20;99.90;;;;;;6197947;23;20187;-87
2021/12/13 06:28:22;;;;;;;14.73;6.85;;;9.20;99.90;;;;;;6173954;23;20185;-87
2021/12/13 06:30:55;;;;;;;14.43;7.32;;;9.20;99.90;;;;;;6175107;23;20198;-87
2021/12/13 06:33:23;;;;;;;17.33;6.95;;;9.20;99.90;;;;;;6198762;23;20029;-87
2021/12/13 06:36:04;;;;;;;15.10;6.93;;;9.10;99.90;;;;;;6195570;23;20063;-87
2021/12/13 06:38:45;;;;;;;15.55;7.55;;;9.10;99.90;;;;;;6173749;23;20046;-87
2021/12/13 06:41:26;;;;;;;18.25;7.35;;;9.00;99.90;;;;;;6173421;23;20028;-87
2021/12/13 06:44:24;;;;;;;16.25;7.32;;;8.90;99.90;;;;;;6198899;23;20032;-87
2021/12/13 06:46:54;;;;;;;16.88;7.03;;;;;;;;;;6152453;23;20060;-87
2021/12/13 06:49:40;;;;;;;16.38;7.15;;;9.10;99.90;;;;;;6173654;23;20064;-88
2021/12/13 06:52:12;;;;;;;15.60;7.50;;;9.10;99.90;;;;;;6198608;23;20157;-87
2021/12/13 06:54:42;;;;;;;16.10;7.18;;;9.00;99.90;;;;;;6173294;23;20049;-88
2021/12/13 06:57:43;;;;;;;18.55;7.40;;;9.10;99.90;;;;;;6198312;23;20004;-88
2021/12/13 07:00:32;;;;;;;16.63;7.60;;;9.10;99.90;;;;;;6146466;23;20242;-87
2021/12/13 07:03:07;;;;;;;15.85;7.07;;;;;;;;;;6198880;23;20004;-88
2021/12/13 07:05:51;;;;;;;13.73;7.13;;;9.10;99.90;;;;;;6172488;23;20061;-87
2021/12/13 07:08:42;;;;;;;14.90;7.18;;;9.10;99.90;;;;;;6173671;23;20108;-87
2021/12/13 07:11:27;;;;;;;15.18;7.32;;;9.10;99.90;;;;;;6173949;23;20005;-87
2021/12/13 07:14:03;;;;;;;20.55;7.50;;;9.00;99.90;;;;;;6173720;23;20134;-87
2021/12/13 07:16:34;;;;;;;18.10;8.32;;;9.10;99.90;;;;;;6198802;23;20008;-87
2021/12/13 07:19:13;;;;;;;16.40;8.00;;;9.10;99.90;;;;;;6173761;23;20183;-86
2021/12/13 07:21:55;;;;;;;16.98;8.23;;;9.00;99.90;;;;;;6224775;23;20043;-86
2021/12/13 07:24:27;;;;;;;16.33;7.63;;;9.00;99.90;;;;;;6198846;23;20040;-89
2021/12/13 07:27:11;;;;;;;16.20;7.88;;;9.10;99.90;;;;;;6200237;23;19992;-88
2021/12/13 07:30:30;;;;;;;17.20;9.02;;;9.80;99.90;;;;;;6176080;23;20001;-86
2021/12/13 07:33:11;;;;;;;17.27;8.48;;;9.00;99.90;;;;;;6155692;23;20112;-88
2021/12/13 07:35:46;;;;;;;16.20;8.52;;;9.00;99.90;;;;;;6175849;23;19992;-88
2021/12/13 07:38:17;;;;;;;19.77;8.65;;;9.00;99.90;;;;;;6200717;23;20182;-86
2021/12/13 07:41:05;;;;;;;;;;;;;;;;;;;;;
2021/12/13 07:43:46;;;;;;;16.83;8.75;;;9.00;99.90;;;;;;6226935;23;20190;-87
2021/12/13 07:46:19;;;;;;;17.77;9.20;;;9.00;99.90;;;;;;6175691;23;20060;-88
2021/12/13 07:48:49;;;;;;;18.90;9.75;;;9.00;99.90;;;;;;6175186;23;20155;-87
2021/12/13 07:51:37;;;;;;;18.55;9.80;;;9.00;99.90;;;;;;6226715;23;20155;-86
2021/12/13 07:54:09;;;;;;;16.60;9.32;;;10.30;99.90;;;;;;6200140;23;20008;-88
2021/12/13 07:56:38;;;;;;;18.70;9.07;;;9.00;99.90;;;;;;6200309;23;19996;-87
2021/12/13 07:59:18;;;;;;;19.75;10.23;;;9.00;99.90;;;;;;6175504;23;19997;-87
2021/12/13 08:02:07;;;;;;;17.52;9.77;;;9.00;99.90;;;;;;6176721;23;20251;-87
2021/12/13 08:04:50;;;;;;;19.38;9.50;;;9.00;99.90;;;;;;6200397;23;20052;-88
2021/12/13 08:07:25;;;;;;;19.75;10.48;;;9.00;99.90;;;;;;6175109;23;20031;-88
2021/12/13 08:10:01;;;;;;;18.15;10.10;;;9.00;99.90;;;;;;6175792;23;20001;-87
2021/12/13 08:12:29;;;;;;;19.13;10.65;;;9.00;99.90;;;;;;6174635;23;20229;-88
2021/12/13 08:15:12;;;;;;;19.27;10.82;;;9.10;99.90;;;;;;6200395;23;19997;-88
2021/12/13 08:17:58;;;;;;;20.52;11.18;;;9.10;99.90;;;;;;6199811;23;20000;-87
2021/12/13 08:20:23;;;;;;;19.73;10.95;;;9.10;99.90;;;;;;6174748;23;20012;-88
2021/12/13 08:22:50;;;;;;;21.42;12.13;;;9.10;99.90;;;;;;6174300;23;20013;-89
2021/12/13 08:25:31;;;;;;;20.73;12.00;;;9.10;99.90;;;;;;6149710;23;20242;-87
2021/12/13 08:28:02;;;;;;;19.92;11.85;;;9.10;99.90;;;;;;6171261;23;20005;-88
2021/12/13 08:31:02;;;;;;;20.30;12.20;;;9.00;99.90;;;;;;6200076;23;20000;-87
2021/12/13 08:33:45;;;;;;;20.20;11.63;;;9.10;99.90;;;;;;6174319;23;20166;-87
2021/12/13 08:36:37;;;;;;;22.33;12.27;;;9.10;99.90;;;;;;6174949;23;20000;-88
2021/12/13 08:39:19;;;;;;;22.58;12.25;;;9.10;99.90;;;;;;6175965;23;19996;-87
2021/12/13 08:42:02;;;;;;;22.42;12.80;;;9.10;99.90;;;;;;6199020;23;20235;-88
2021/12/13 08:44:57;;;;;;;22.00;12.57;;;9.20;99.90;;;;;;6200043;23;20000;-88
2021/12/13 08:47:44;;;;;;;23.48;12.93;;;9.20;99.90;;;;;;6155125;23;20004;-87
2021/12/13 08:50:32;;;;;;;22.92;13.40;;;8.60;99.90;;;;;;6173081;23;19997;-87
2021/12/13 08:53:37;;;;;;;21.92;12.40;;;9.20;99.90;;;;;;6198412;23;20148;-86
2021/12/13 08:56:13;;;;;;;21.50;13.65;;;9.20;99.90;;;;;;6198638;23;19996;-87
2021/12/13 08:58:52;;;;;;;;;;;9.10;99.90;;;;;;6175496;23;20008;-87
2021/12/13 09:01:28;;;;;;;22.63;13.82;;;9.20;99.90;;;;;;6199434;23;19927;-87
2021/12/13 09:04:01;;;;;;;21.58;14.13;;;8.80;99.90;;;;;;6174864;23;20000;-87
2021/12/13 09:06:41;;;;;;;21.75;14.13;;;9.30;99.90;;;;;;6151314;23;20005;-88
2021/12/13 09:09:17;;;;;;;23.42;14.10;;;9.30;99.90;;;;;;6150796;23;20007;-87
2021/12/13 09:11:59;;;;;;;24.83;15.35;;;9.10;99.90;;;;;;6175364;23;20004;-87
2021/12/13 09:14:43;;;;;;;22.00;14.40;;;6.60;99.90;;;;;;6171668;23;20247;-86
2021/12/13 09:17:23;;;;;;;25.73;15.50;;;9.30;99.90;;;;;;6199515;23;20000;-88
2021/12/13 09:19:52;;;;;;;23.15;15.18;;;8.50;99.90;;;;;;6174211;23;20146;-88
2021/12/13 09:22:35;;;;;;;25.42;15.15;;;9.30;99.90;;;;;;6173810;23;20156;-88
2021/12/13 09:25:27;;;;;;;25.00;15.18;;;9.40;99.90;;;;;;6199284;23;20012;-88
2021/12/13 09:28:13;;;;;;;23.17;14.48;;;9.40;99.90;;;;;;6225842;23;20129;-87
2021/12/13 09:31:13;;;;;;;24.13;14.70;;;9.40;99.90;;;;;;6174983;23;20032;-87
2021/12/13 09:33:53;;;;;;;23.67;14.57;;;9.50;99.90;;;;;;6173259;23;20004;-86
2021/12/13 09:36:43;;;;;;;26.98;15.95;;;9.50;99.90;;;;;;6172330;23;20039;-86
2021/12/13 09:39:33;;;;;;;25.85;15.77;;;9.50;99.90;;;;;;6199066;23;20150;-87
2021/12/13 09:42:11;;;;;;;22.10;15.43;;;9.50;99.90;;;;;;6198930;23;20001;-87
2021/12/13 09:44:51;;;;;;;24.80;15.05;;;9.50;99.90;;;;;;6173948;23;20028;-87
2021/12/13 09:47:40;;;;;;;23.92;15.05;;;9.50;99.90;;;;;;6173183;23;20152;-86
2021/12/13 09:50:20;;;;;;;21.38;14.65;;;9.50;99.90;;;;;;6199145;23;20000;-88
2021/12/13 09:53:04;;;;;;;22.23;14.70;;;9.40;99.90;;;;;;6174482;23;20079;-87
2021/12/13 09:55:47;;;;;;;21.65;14.60;;;9.50;99.90;;;;;;6199004;23;20131;-86
2021/12/13 09:58:47;;;;;;;22.40;14.68;;;9.50;99.90;;;;;;6173944;23;20001;-88
2021/12/13 10:01:25;;;;;;;23.83;14.55;;;9.50;99.90;;;;;;6186986;23;19997;-86
2021/12/13 10:04:12;;;;;;;20.95;13.88;;;9.50;99.90;;;;;;6174259;23;20294;-86
2021/12/13 10:06:42;;;;;;;20.88;14.75;;;9.60;99.90;;;;;;6198765;23;20079;-87
2021/12/13 10:09:24;;;;;;;21.25;14.18;;;9.50;99.90;;;;;;6173651;23;20000;-87
2021/12/13 10:12:07;;;;;;;24.77;14.38;;;9.50;99.90;;;;;;6170801;23;20011;-87
2021/12/13 10:14:42;;;;;;;20.83;14.45;;;9.60;99.90;;;;;;6199662;23;19996;-86
2021/12/13 10:17:13;;;;;;;23.77;14.82;;;9.50;99.90;;;;;;6198259;23;20001;-86
2021/12/13 10:19:52;;;;;;;22.20;13.45;;;9.60;99.90;;;;;;6199385;23;20000;-87
2021/12/13 10:22:24;;;;;;;20.85;13.50;;;9.60;99.90;;;;;;6199474;23;20009;-87
2021/12/13 10:25:06;;;;;;;21.52;13.27;;;9.60;99.90;;;;;;6198866;23;20015;-87
2021/12/13 10:27:33;;;;;;;18.88;12.95;;;9.60;99.90;;;;;;6174118;23;20062;-87
2021/12/13 10:30:06;;;;;;;22.80;13.80;;;9.60;99.90;;;;;;6149783;23;20055;-87
2021/12/13 10:32:36;;;;;;;20.27;13.40;;;9.60;99.90;;;;;;6173695;23;20013;-87
2021/12/13 10:35:09;;;;;;;20.92;13.40;;;9.60;99.90;;;;;;6174119;23;20006;-86
2021/12/13 10:37:45;;;;;;;21.98;13.13;;;9.60;99.90;;;;;;6173384;23;20000;-87
2021/12/13 10:40:23;;;;;;;19.05;13.30;;;9.60;99.90;;;;;;6195214;23;20001;-86
2021/12/13 10:42:59;;;;;;;19.27;12.90;;;8.90;99.90;;;;;;6174190;23;20253;-87
2021/12/13 10:45:31;;;;;;;20.15;12.57;;;10.70;99.90;;;;;;6198586;23;20016;-87
2021/12/13 10:48:06;;;;;;;20.30;11.93;;;9.70;99.90;;;;;;6174294;23;20014;-86
2021/12/13 10:50:35;;;;;;;19.23;12.48;;;9.70;99.90;;;;;;6198477;23;20240;-86
2021/12/13 10:53:06;;;;;;;17.63;11.50;;;9.70;99.90;;;;;;6174279;23;20228;-86
2021/12/13 10:55:44;;;;;;;19.85;11.40;;;9.70;99.90;;;;;;6198845;23;20043;-87
2021/12/13 10:58:39;;;;;;;18.85;11.60;;;9.80;99.90;;;;;;6198591;23;20123;-87
2021/12/13 11:01:21;;;;;;;19.85;11.88;;;9.80;99.90;;;;;;6174149;23;20001;-87
2021/12/13 11:03:51;;;;;;;17.92;11.38;;;9.80;99.90;;;;;;6173440;23;20011;-85
2021/12/13 11:06:23;;;;;;;18.30;11.02;;;9.80;99.90;;;;;;6198124;23;20043;-87
2021/12/13 11:08:53;;;;;;;16.77;11.07;;;9.80;99.90;;;;;;6198786;23;20035;-87
2021/12/13 11:11:47;;;;;;;18.80;11.70;;;9.90;99.90;;;;;;6173856;23;20007;-86
2021/12/13 11:14:22;;;;;;;18.77;11.88;;;9.80;99.90;;;;;;6198791;23;20005;-86
2021/12/13 11:16:54;;;;;;;17.33;10.85;;;9.80;99.90;;;;;;6174802;23;20000;-86
2021/12/13 11:19:33;;;;;;;;;;;;;;;;;;;;;
2021/12/13 11:22:09;;;;;;;19.42;11.38;;;9.90;99.90;;;;;;6197515;23;20032;-86
2021/12/13 11:24:38;;;;;;;17.50;11.20;;;9.80;99.90;;;;;;6198380;23;20020;-87
2021/12/13 11:27:32;;;;;;;17.20;11.02;;;9.90;99.90;;;;;;6173413;23;20000;-86
2021/12/13 11:30:22;;;;;;;20.45;10.80;;;9.90;99.90;;;;;;6187065;23;20017;-85
2021/12/13 11:33:07;;;;;;;19.90;10.35;;;;;;;;;;6224760;23;20118;-86
2021/12/13 11:36:09;;;;;;;17.63;10.80;;;9.90;99.90;;;;;;6198676;23;19996;-87
2021/12/13 11:39:13;;;;;;;17.63;10.95;;;9.80;99.90;;;;;;6198395;23;20000;-85
2021/12/13 11:42:09;;;;;;;20.67;11.20;;;9.90;99.90;;;;;;6198580;23;20000;-87
2021/12/13 11:45:04;;;;;;;19.73;10.38;;;9.90;99.90;;;;;;6198253;23;20051;-85
2021/12/13 11:47:30;;;;;;;18.63;10.50;;;9.90;99.90;;;;;;6198257;23;20001;-87
2021/12/13 11:50:34;;;;;;;19.83;11.07;;;9.90;99.90;;;;;;6198687;23;20128;-86
2021/12/13 11:53:22;;;;;;;;;;;9.90;99.90;;;;;;6201140;23;20173;-86
2021/12/13 11:56:15;;;;;;;19.85;10.45;;;9.80;99.90;;;;;;6198416;23;19900;-86
2021/12/13 11:59:28;;;;;;;;;;;;;;;;;;;;;
2021/12/13 12:02:46;;;;;;;19.42;10.88;;;9.90;99.90;;;;;;6220854;23;20004;-87
2021/12/13 12:05:52;;;;;;;20.83;11.23;;;9.90;99.90;;;;;;6157875;23;20005;-86
2021/12/13 12:08:44;;;;;;;19.77;11.20;;;9.90;99.90;;;;;;6168611;23;20262;-87
2021/12/13 12:11:48;;;;;;;18.83;11.57;;;9.90;99.90;;;;;;6193953;23;20001;-87
2021/12/13 12:14:25;;;;;;;19.45;10.95;;;9.90;99.90;;;;;;6116537;23;20083;-86
2021/12/13 12:16:56;;;;;;;18.02;11.23;;;9.90;99.90;;;;;;6170386;23;20053;-87
2021/12/13 12:19:35;;;;;;;16.52;10.25;;;9.90;99.90;;;;;;6194574;23;20132;-88
2021/12/13 12:22:13;;;;;;;20.52;11.30;;;9.90;99.90;;;;;;6195128;23;20325;-87
2021/12/13 12:25:21;;;;;;;23.65;11.27;;;10.00;99.90;;;;;;6170122;23;20286;-87
2021/12/13 12:28:09;;;;;;;23.65;11.10;;;10.00;99.90;;;;;;6074276;23;20003;-88
2021/12/13 12:30:48;;;;;;;18.48;10.60;;;10.00;99.90;;;;;;6081171;23;20246;-86
2021/12/13 12:33:35;;;;;;;20.30;11.48;;;10.00;99.90;;;;;;6056857;23;20015;-86
2021/12/13 12:36:27;;;;;;;19.95;11.13;;;10.00;99.90;;;;;;6080883;23;20374;-87
2021/12/13 12:39:05;;;;;;;20.95;11.90;;;;;;;;;;6105569;23;20025;-87
2021/12/13 12:42:05;;;;;;;21.33;11.48;;;10.00;99.90;;;;;;6134688;23;20263;-88
2021/12/13 12:45:16;;;;;;;18.80;11.38;;;9.50;99.90;;;;;;6169977;23;20005;-87
2021/12/13 12:47:54;;;;;;;18.42;11.65;;;;;;;;;;6169790;23;20159;-86
2021/12/13 12:50:26;;;;;;;19.95;11.77;;;10.00;99.90;;;;;;6169569;23;20008;-88
2021/12/13 12:53:11;;;;;;;19.65;11.40;;;;;;;;;;6170089;23;20255;-90
2021/12/13 12:55:43;;;;;;;20.02;12.30;;;9.90;99.90;;;;;;6145554;23;20270;-87
2021/12/13 12:58:40;;;;;;;22.13;11.82;;;9.90;99.90;;;;;;6145435;23;20243;-87
2021/12/13 13:01:22;;;;;;;18.65;11.68;;;9.80;99.90;;;;;;6145645;23;20231;-86
2021/12/13 13:03:49;;;;;;;20.88;11.45;;;9.80;99.90;;;;;;6153608;23;20031;-86
2021/12/13 13:06:32;;;;;;;19.13;10.90;;;9.80;99.90;;;;;;6174360;23;20019;-87
2021/12/13 13:09:06;;;;;;;;;;;10.20;99.90;;;;;;6199871;23;20096;-87
2021/12/13 13:11:44;;;;;;;20.13;11.98;;;10.00;99.90;;;;;;6199025;23;20188;-86
2021/12/13 13:14:18;;;;;;;23.85;12.02;;;9.80;99.90;;;;;;6199902;23;20004;-86
2021/12/13 13:16:50;;;;;;;22.65;13.00;;;10.00;99.90;;;;;;6199846;23;20001;-86
2021/12/13 13:19:28;;;;;;;21.33;12.83;;;9.90;99.90;;;;;;6175008;23;20000;-88
2021/12/13 13:21:56;;;;;;;24.73;13.05;;;9.80;99.90;;;;;;6174849;23;20008;-87
2021/12/13 13:24:41;;;;;;;;;;;;;;;;;;;;;
2021/12/13 13:27:17;;;;;;;24.42;13.32;;;9.80;99.90;;;;;;6199230;23;20004;-86
2021/12/13 13:29:54;;;;;;;23.70;13.48;;;9.80;99.90;;;;;;6173574;23;20012;-86
2021/12/13 13:32:20;;;;;;;23.30;13.57;;;;;;;;;;6150908;23;20199;-88
2021/12/13 13:35:15;;;;;;;24.35;13.35;;;9.90;99.90;;;;;;6173390;23;20000;-86
2021/12/13 13:38:06;;;;;;;24.58;13.52;;;8.60;99.90;;;;;;6179955;23;20251;-85
2021/12/13 13:40:34;;;;;;;21.00;13.27;;;9.90;99.90;;;;;;6199541;23;20235;-88
2021/12/13 13:43:04;;;;;;;24.52;12.95;;;9.90;99.90;;;;;;6171526;23;20004;-86
2021/12/13 15:05:31;;;;;;;22.52;11.27;;;9.50;99.90;;;;;;5011102;22;1987700;-91
2021/12/13 15:07:59;;;;;;;20.30;11.82;;;9.40;99.90;;;;;;5017981;28;20294;-88
2021/12/13 15:10:34;;;;;;;19.15;11.63;;;9.50;99.90;;;;;;5015690;28;20033;-88
2021/12/13 15:13:02;;;;;;;21.23;11.90;;;10.50;99.90;;;;;;5024762;28;20037;-89
2021/12/13 15:15:33;;;;;;;23.50;12.40;;;9.50;99.90;;;;;;5032348;28;20107;-88
2021/12/13 15:18:06;;;;;;;24.17;12.32;;;9.50;99.90;;;;;;5003250;28;20131;-88
2021/12/13 15:20:59;;;;;;;22.48;12.55;;;9.50;99.90;;;;;;5032668;28;20041;-88
2021/12/13 15:23:32;;;;;;;22.52;12.00;;;9.40;99.90;;;;;;5025576;28;20099;-89
2021/12/13 15:26:12;;;;;;;27.30;13.75;;;9.40;99.90;;;;;;5015300;28;20077;-88
2021/12/13 15:28:51;;;;;;;24.10;12.60;;;9.40;99.90;;;;;;5014326;28;20038;-85
2021/12/13 15:31:41;;;;;;;25.92;13.27;;;9.40;99.90;;;;;;5026991;28;20037;-88
2021/12/13 15:34:24;;;;;;;25.40;13.07;;;9.40;99.90;;;;;;5018130;28;20049;-86
2021/12/13 15:36:52;;;;;;;24.70;13.25;;;9.40;99.90;;;;;;5026293;28;20041;-87
2021/12/13 15:39:21;;;;;;;25.65;13.80;;;10.80;99.90;;;;;;5029233;28;20052;-86
2021/12/13 15:41:50;;;;;;;23.77;13.55;;;9.40;99.90;;;;;;5028376;28;20520;-87
2021/12/13 15:44:18;;;;;;;24.52;14.85;;;9.30;99.90;;;;;;5015001;28;20045;-86
2021/12/13 15:46:53;;;;;;;25.13;13.85;;;9.40;99.90;;;;;;5031188;28;20153;-85
2021/12/13 15:49:31;;;;;;;25.83;13.93;;;9.40;99.90;;;;;;5033353;28;20099;-92
2021/12/13 15:52:11;;;;;;;25.58;14.35;;;9.40;99.90;;;;;;5021718;28;20503;-94
2021/12/13 15:54:47;;;;;;;23.65;13.55;;;9.30;99.90;;;;;;5025367;28;20120;-92
2021/12/13 15:57:18;;;;;;;25.20;14.52;;;9.40;99.90;;;;;;5033159;28;20045;-95